sensor_id;sensor_type;location;lat;lon;timestamp;pressure;altitude;pressure_sealevel;temperature;humidity
49583;BME280;36329;48.816;44.624;2023-02-22T00:00:25;98711;;;1.4;96.6
49583;BME280;36329;48.816;44.624;2023-02-22T00:03:30;98715;;;1.5;95
49583;BME280;36329;48.816;44.624;2023-02-22T00:06:32;98720;;;1.5;94.8
49583;BME280;36329;48.816;44.624;2023-02-22T00:09:36;98720;;;1.3;95.2
49583;BME280;36329;48.816;44.624;2023-02-22T00:12:44;98729;;;1.3;95.2
49583;BME280;36329;48.816;44.624;2023-02-22T00:15:47;98725;;;1.1;95.8
49583;BME280;36329;48.816;44.624;2023-02-22T00:18:49;98727;;;0.9;97
49583;BME280;36329;48.816;44.624;2023-02-22T00:21:56;98736;;;1.1;97.4
49583;BME280;36329;48.816;44.624;2023-02-22T00:24:59;98740;;;1.3;95.5
49583;BME280;36329;48.816;44.624;2023-02-22T00:28:01;98743;;;1.2;95.6
49583;BME280;36329;48.816;44.624;2023-02-22T00:31:06;98742;;;1.1;96.6
49583;BME280;36329;48.816;44.624;2023-02-22T00:34:08;98753;;;1.3;96.1
49583;BME280;36329;48.816;44.624;2023-02-22T00:37:10;98758;;;1.3;95.9
49583;BME280;36329;48.816;44.624;2023-02-22T00:40:20;98753;;;1.2;95.7
49583;BME280;36329;48.816;44.624;2023-02-22T00:43:22;98770;;;1.2;96.4
49583;BME280;36329;48.816;44.624;2023-02-22T00:46:24;98772;;;1.2;95.9
49583;BME280;36329;48.816;44.624;2023-02-22T00:49:37;98780;;;1.3;95.7
49583;BME280;36329;48.816;44.624;2023-02-22T00:52:39;98778;;;1.1;96.8
49583;BME280;36329;48.816;44.624;2023-02-22T00:55:42;98776;;;1.2;95.2
49583;BME280;36329;48.816;44.624;2023-02-22T00:58:44;98795;;;1.1;94.4
49583;BME280;36329;48.816;44.624;2023-02-22T01:01:46;98797;;;1.1;95.3
49583;BME280;36329;48.816;44.624;2023-02-22T01:04:49;98811;;;1.1;95.3
49583;BME280;36329;48.816;44.624;2023-02-22T01:07:53;98813;;;1.2;95.1
49583;BME280;36329;48.816;44.624;2023-02-22T01:11:02;98823;;;1.1;95.4
49583;BME280;36329;48.816;44.624;2023-02-22T01:14:09;98822;;;1;94.9
49583;BME280;36329;48.816;44.624;2023-02-22T01:17:12;98831;;;1;95.7
49583;BME280;36329;48.816;44.624;2023-02-22T01:20:15;98833;;;1;95.3
49583;BME280;36329;48.816;44.624;2023-02-22T01:23:17;98847;;;0.8;95.6
49583;BME280;36329;48.816;44.624;2023-02-22T01:26:19;98854;;;0.8;97.2
49583;BME280;36329;48.816;44.624;2023-02-22T01:29:27;98860;;;1.1;96.5
49583;BME280;36329;48.816;44.624;2023-02-22T01:32:36;98874;;;1.4;95.6
49583;BME280;36329;48.816;44.624;2023-02-22T01:35:41;98883;;;1.3;94.1
49583;BME280;36329;48.816;44.624;2023-02-22T01:38:44;98895;;;1.4;95.2
49583;BME280;36329;48.816;44.624;2023-02-22T01:41:46;98896;;;1.4;93.9
49583;BME280;36329;48.816;44.624;2023-02-22T01:48:19;98911;;;1.2;93
49583;BME280;36329;48.816;44.624;2023-02-22T01:51:26;98911;;;1.2;92.2
49583;BME280;36329;48.816;44.624;2023-02-22T01:54:31;98918;;;1.1;91.2
49583;BME280;36329;48.816;44.624;2023-02-22T01:57:35;98929;;;0.9;92.9
49583;BME280;36329;48.816;44.624;2023-02-22T02:00:39;98933;;;0.9;93.1
49583;BME280;36329;48.816;44.624;2023-02-22T02:03:41;98945;;;0.7;92.6
49583;BME280;36329;48.816;44.624;2023-02-22T02:06:44;98949;;;0.6;93
49583;BME280;36329;48.816;44.624;2023-02-22T02:09:52;98958;;;0.7;92.8
49583;BME280;36329;48.816;44.624;2023-02-22T02:12:57;98959;;;0.6;93.1
49583;BME280;36329;48.816;44.624;2023-02-22T02:16:10;98961;;;0.7;93.8
49583;BME280;36329;48.816;44.624;2023-02-22T02:19:17;98971;;;0.6;93.4
49583;BME280;36329;48.816;44.624;2023-02-22T02:22:37;98972;;;0.6;93.6
49583;BME280;36329;48.816;44.624;2023-02-22T02:25:56;98981;;;0.8;93.4
49583;BME280;36329;48.816;44.624;2023-02-22T02:29:22;98989;;;0.8;93.2
49583;BME280;36329;48.816;44.624;2023-02-22T02:32:44;98989;;;0.7;90.9
49583;BME280;36329;48.816;44.624;2023-02-22T02:35:59;98991;;;0.8;89.5
49583;BME280;36329;48.816;44.624;2023-02-22T02:39:09;98997;;;0.5;90
49583;BME280;36329;48.816;44.624;2023-02-22T02:42:16;98999;;;0.7;89.8
49583;BME280;36329;48.816;44.624;2023-02-22T02:45:25;99000;;;0.4;90.9
49583;BME280;36329;48.816;44.624;2023-02-22T02:48:33;99010;;;0.5;90.5
49583;BME280;36329;48.816;44.624;2023-02-22T02:51:45;99011;;;0.4;90
49583;BME280;36329;48.816;44.624;2023-02-22T02:54:55;99023;;;0.4;90.6
49583;BME280;36329;48.816;44.624;2023-02-22T02:57:59;99032;;;0.2;90.4
49583;BME280;36329;48.816;44.624;2023-02-22T03:01:02;99032;;;0.3;90.6
49583;BME280;36329;48.816;44.624;2023-02-22T03:04:13;99030;;;0.5;89.7
49583;BME280;36329;48.816;44.624;2023-02-22T03:07:27;99027;;;0.4;89.3
49583;BME280;36329;48.816;44.624;2023-02-22T03:10:42;99038;;;0.6;88.3
49583;BME280;36329;48.816;44.624;2023-02-22T03:14:01;99030;;;0.6;88.3
49583;BME280;36329;48.816;44.624;2023-02-22T03:17:17;99037;;;0.5;86.8
49583;BME280;36329;48.816;44.624;2023-02-22T03:20:28;99031;;;0.4;86.1
49583;BME280;36329;48.816;44.624;2023-02-22T03:23:44;99031;;;0.2;84.8
49583;BME280;36329;48.816;44.624;2023-02-22T03:27:03;99032;;;0.3;84.8
49583;BME280;36329;48.816;44.624;2023-02-22T03:30:11;99024;;;0.4;84
49583;BME280;36329;48.816;44.624;2023-02-22T03:33:18;99029;;;0.4;82.8
49583;BME280;36329;48.816;44.624;2023-02-22T03:36:27;99034;;;0.6;82.4
49583;BME280;36329;48.816;44.624;2023-02-22T03:39:34;99040;;;0.6;81.4
49583;BME280;36329;48.816;44.624;2023-02-22T03:42:39;99044;;;0.6;82.3
49583;BME280;36329;48.816;44.624;2023-02-22T03:45:46;99058;;;0.8;82.7
49583;BME280;36329;48.816;44.624;2023-02-22T03:48:59;99064;;;0.5;82.3
49583;BME280;36329;48.816;44.624;2023-02-22T03:52:04;99063;;;0.5;83.7
49583;BME280;36329;48.816;44.624;2023-02-22T03:55:09;99076;;;0.4;84.9
49583;BME280;36329;48.816;44.624;2023-02-22T03:58:20;99091;;;0.5;84.4
49583;BME280;36329;48.816;44.624;2023-02-22T04:01:23;99091;;;0.4;84.9
49583;BME280;36329;48.816;44.624;2023-02-22T04:04:25;99104;;;0.5;84.8
49583;BME280;36329;48.816;44.624;2023-02-22T04:07:28;99109;;;0.6;85
49583;BME280;36329;48.816;44.624;2023-02-22T04:10:30;99115;;;0.4;87
49583;BME280;36329;48.816;44.624;2023-02-22T04:13:34;99125;;;0.2;88.7
49583;BME280;36329;48.816;44.624;2023-02-22T04:16:37;99121;;;0.1;88.9
49583;BME280;36329;48.816;44.624;2023-02-22T04:19:40;99129;;;0.1;89.5
49583;BME280;36329;48.816;44.624;2023-02-22T04:22:43;99140;;;0.1;89.8
49583;BME280;36329;48.816;44.624;2023-02-22T04:25:46;99138;;;0;89.2
49583;BME280;36329;48.816;44.624;2023-02-22T04:28:50;99139;;;-0.1;90.8
49583;BME280;36329;48.816;44.624;2023-02-22T04:31:58;99146;;;-0.2;90.1
49583;BME280;36329;48.816;44.624;2023-02-22T04:35:00;99139;;;-0.2;89.7
49583;BME280;36329;48.816;44.624;2023-02-22T04:38:08;99139;;;-0.2;88.7
49583;BME280;36329;48.816;44.624;2023-02-22T04:41:22;99144;;;-0.4;87.7
49583;BME280;36329;48.816;44.624;2023-02-22T04:44:25;99145;;;-0.2;87.9
49583;BME280;36329;48.816;44.624;2023-02-22T04:47:38;99152;;;0;87.2
49583;BME280;36329;48.816;44.624;2023-02-22T04:50:51;99154;;;-0.1;85.9
49583;BME280;36329;48.816;44.624;2023-02-22T04:53:53;99162;;;-0.1;84.6
49583;BME280;36329;48.816;44.624;2023-02-22T04:56:55;99165;;;0.1;83.8
49583;BME280;36329;48.816;44.624;2023-02-22T05:00:04;99165;;;0.3;82.3
49583;BME280;36329;48.816;44.624;2023-02-22T05:03:10;99178;;;0.4;81.2
49583;BME280;36329;48.816;44.624;2023-02-22T05:06:17;99187;;;0.4;81.3
49583;BME280;36329;48.816;44.624;2023-02-22T05:09:29;99190;;;0.6;80.1
49583;BME280;36329;48.816;44.624;2023-02-22T05:12:52;99202;;;0.4;82.5
49583;BME280;36329;48.816;44.624;2023-02-22T05:15:56;99200;;;0.5;81.2
49583;BME280;36329;48.816;44.624;2023-02-22T05:19:11;99205;;;0.5;81
49583;BME280;36329;48.816;44.624;2023-02-22T05:22:31;99215;;;0.6;81
49583;BME280;36329;48.816;44.624;2023-02-22T05:25:35;99213;;;0.5;82.3
49583;BME280;36329;48.816;44.624;2023-02-22T05:28:38;99215;;;0.5;82.3
49583;BME280;36329;48.816;44.624;2023-02-22T05:31:48;99217;;;0.6;82
49583;BME280;36329;48.816;44.624;2023-02-22T05:35:06;99224;;;0.7;82.1
49583;BME280;36329;48.816;44.624;2023-02-22T05:38:19;99238;;;0.3;82.4
49583;BME280;36329;48.816;44.624;2023-02-22T05:41:22;99233;;;0.7;83.9
49583;BME280;36329;48.816;44.624;2023-02-22T05:44:30;99231;;;0.6;82.4
49583;BME280;36329;48.816;44.624;2023-02-22T05:47:33;99229;;;0.9;82.4
49583;BME280;36329;48.816;44.624;2023-02-22T05:50:45;99235;;;0.9;81.1
49583;BME280;36329;48.816;44.624;2023-02-22T05:53:54;99241;;;0.8;82.3
49583;BME280;36329;48.816;44.624;2023-02-22T05:57:06;99239;;;0.8;81.7
49583;BME280;36329;48.816;44.624;2023-02-22T06:00:15;99249;;;1.1;79.3
49583;BME280;36329;48.816;44.624;2023-02-22T06:03:38;99250;;;0.9;80
49583;BME280;36329;48.816;44.624;2023-02-22T06:06:42;99249;;;1;79.1
49583;BME280;36329;48.816;44.624;2023-02-22T06:09:51;99255;;;0.5;79.7
49583;BME280;36329;48.816;44.624;2023-02-22T06:12:55;99256;;;0.6;79.8
49583;BME280;36329;48.816;44.624;2023-02-22T06:15:58;99256;;;0.6;80
49583;BME280;36329;48.816;44.624;2023-02-22T06:19:11;99256;;;0.8;78.3
49583;BME280;36329;48.816;44.624;2023-02-22T06:22:17;99264;;;0.7;79
49583;BME280;36329;48.816;44.624;2023-02-22T06:25:26;99258;;;0.1;81.7
49583;BME280;36329;48.816;44.624;2023-02-22T06:28:40;99247;;;0.1;81.2
49583;BME280;36329;48.816;44.624;2023-02-22T06:31:54;99253;;;0.3;79
49583;BME280;36329;48.816;44.624;2023-02-22T06:35:03;99258;;;0.2;80.4
49583;BME280;36329;48.816;44.624;2023-02-22T06:38:20;99263;;;0;81.8
49583;BME280;36329;48.816;44.624;2023-02-22T06:41:35;99264;;;0.3;83.1
49583;BME280;36329;48.816;44.624;2023-02-22T06:44:45;99271;;;0.3;83.2
49583;BME280;36329;48.816;44.624;2023-02-22T06:47:53;99270;;;0.4;83.2
49583;BME280;36329;48.816;44.624;2023-02-22T06:51:02;99278;;;0.2;82.3
49583;BME280;36329;48.816;44.624;2023-02-22T06:54:15;99290;;;0.2;83.2
49583;BME280;36329;48.816;44.624;2023-02-22T06:57:25;99296;;;-0.2;83.6
49583;BME280;36329;48.816;44.624;2023-02-22T07:00:29;99297;;;-0.3;83.9
49583;BME280;36329;48.816;44.624;2023-02-22T07:03:40;99302;;;-0.3;84.3
49583;BME280;36329;48.816;44.624;2023-02-22T07:06:50;99308;;;-0.3;83.4
49583;BME280;36329;48.816;44.624;2023-02-22T07:10:05;99318;;;-0.2;82.3
49583;BME280;36329;48.816;44.624;2023-02-22T07:13:13;99329;;;-0.2;83.4
49583;BME280;36329;48.816;44.624;2023-02-22T07:16:24;99338;;;-0.6;83.2
49583;BME280;36329;48.816;44.624;2023-02-22T07:19:36;99338;;;-0.5;83
49583;BME280;36329;48.816;44.624;2023-02-22T07:22:50;99346;;;0.8;76.3
49583;BME280;36329;48.816;44.624;2023-02-22T07:25:53;99342;;;1.8;69.8
49583;BME280;36329;48.816;44.624;2023-02-22T07:28:55;99354;;;0.9;71.7
49583;BME280;36329;48.816;44.624;2023-02-22T07:32:00;99356;;;0.6;74
49583;BME280;36329;48.816;44.624;2023-02-22T07:35:04;99369;;;0.1;75.2
49583;BME280;36329;48.816;44.624;2023-02-22T07:38:33;99370;;;-0.3;77.9
49583;BME280;36329;48.816;44.624;2023-02-22T07:41:41;99369;;;0;77.8
49583;BME280;36329;48.816;44.624;2023-02-22T07:44:54;99386;;;-0.4;78.8
49583;BME280;36329;48.816;44.624;2023-02-22T07:47:57;99382;;;-0.4;79.3
49583;BME280;36329;48.816;44.624;2023-02-22T07:51:13;99389;;;-0.3;80.8
49583;BME280;36329;48.816;44.624;2023-02-22T07:54:15;99389;;;-0.3;78.4
49583;BME280;36329;48.816;44.624;2023-02-22T07:57:25;99396;;;0;77.3
49583;BME280;36329;48.816;44.624;2023-02-22T08:00:32;99394;;;0.2;75.3
49583;BME280;36329;48.816;44.624;2023-02-22T08:03:37;99414;;;0;73.6
49583;BME280;36329;48.816;44.624;2023-02-22T08:06:42;99414;;;0.9;69.4
49583;BME280;36329;48.816;44.624;2023-02-22T08:09:53;99422;;;1.3;67.3
49583;BME280;36329;48.816;44.624;2023-02-22T08:13:10;99430;;;0.7;66.2
49583;BME280;36329;48.816;44.624;2023-02-22T08:16:21;99449;;;0;68.9
49583;BME280;36329;48.816;44.624;2023-02-22T08:19:40;99452;;;0;69.2
49583;BME280;36329;48.816;44.624;2023-02-22T08:23:04;99456;;;-0.1;69.5
49583;BME280;36329;48.816;44.624;2023-02-22T08:26:34;99448;;;-0.1;69.4
49583;BME280;36329;48.816;44.624;2023-02-22T08:29:40;99463;;;-0.3;69.6
49583;BME280;36329;48.816;44.624;2023-02-22T08:33:09;99459;;;-0.6;70.5
49583;BME280;36329;48.816;44.624;2023-02-22T08:36:41;99452;;;-0.3;70.1
49583;BME280;36329;48.816;44.624;2023-02-22T08:39:52;99457;;;0.1;68.6
49583;BME280;36329;48.816;44.624;2023-02-22T08:42:57;99465;;;-0.1;69.9
49583;BME280;36329;48.816;44.624;2023-02-22T08:46:00;99471;;;0.5;69.1
49583;BME280;36329;48.816;44.624;2023-02-22T08:49:11;99485;;;1.1;64.1
49583;BME280;36329;48.816;44.624;2023-02-22T08:52:20;99495;;;1.5;62.4
49583;BME280;36329;48.816;44.624;2023-02-22T08:55:33;99488;;;0.7;64.7
49583;BME280;36329;48.816;44.624;2023-02-22T08:58:37;99505;;;0.2;68.4
49583;BME280;36329;48.816;44.624;2023-02-22T09:01:53;99505;;;0.1;70.4
49583;BME280;36329;48.816;44.624;2023-02-22T09:05:13;99521;;;0;69.9
49583;BME280;36329;48.816;44.624;2023-02-22T09:08:28;99525;;;-0.2;69.4
49583;BME280;36329;48.816;44.624;2023-02-22T09:11:33;99531;;;0.3;68.3
49583;BME280;36329;48.816;44.624;2023-02-22T09:14:36;99532;;;1.7;61.6
49583;BME280;36329;48.816;44.624;2023-02-22T09:17:50;99539;;;3.4;57
49583;BME280;36329;48.816;44.624;2023-02-22T09:21:23;99548;;;5.2;49.5
49583;BME280;36329;48.816;44.624;2023-02-22T09:24:34;99550;;;3.8;48.8
49583;BME280;36329;48.816;44.624;2023-02-22T09:27:55;99566;;;2.2;56.2
49583;BME280;36329;48.816;44.624;2023-02-22T09:31:02;99562;;;1.9;57.6
49583;BME280;36329;48.816;44.624;2023-02-22T09:34:21;99564;;;1.2;58.5
49583;BME280;36329;48.816;44.624;2023-02-22T09:37:33;99572;;;1.7;56.1
49583;BME280;36329;48.816;44.624;2023-02-22T09:40:51;99584;;;1.2;56.5
49583;BME280;36329;48.816;44.624;2023-02-22T09:44:08;99578;;;1.1;57.5
49583;BME280;36329;48.816;44.624;2023-02-22T09:47:53;99584;;;1.2;56.8
49583;BME280;36329;48.816;44.624;2023-02-22T09:51:13;99584;;;3.5;52.6
49583;BME280;36329;48.816;44.624;2023-02-22T09:54:23;99593;;;2.9;51.1
49583;BME280;36329;48.816;44.624;2023-02-22T09:57:55;99592;;;1.5;54.5
49583;BME280;36329;48.816;44.624;2023-02-22T10:01:21;99606;;;1.5;54.5
49583;BME280;36329;48.816;44.624;2023-02-22T10:04:46;99610;;;1.6;52.8
49583;BME280;36329;48.816;44.624;2023-02-22T10:08:02;99631;;;1.1;52.8
49583;BME280;36329;48.816;44.624;2023-02-22T10:11:34;99640;;;0.5;54.9
49583;BME280;36329;48.816;44.624;2023-02-22T10:22:18;99666;;;2;48.1
49583;BME280;36329;48.816;44.624;2023-02-22T10:25:33;99663;;;2.8;45.4
49583;BME280;36329;48.816;44.624;2023-02-22T10:28:48;99672;;;1.1;45.8
49583;BME280;36329;48.816;44.624;2023-02-22T10:32:18;99675;;;1.3;46.4
49583;BME280;36329;48.816;44.624;2023-02-22T10:35:40;99678;;;1.7;45
49583;BME280;36329;48.816;44.624;2023-02-22T10:38:58;99672;;;2.2;45.7
49583;BME280;36329;48.816;44.624;2023-02-22T10:42:09;99693;;;1.8;43.1
49583;BME280;36329;48.816;44.624;2023-02-22T10:45:25;99683;;;1.4;43.4
49583;BME280;36329;48.816;44.624;2023-02-22T10:48:47;99693;;;1.9;42
49583;BME280;36329;48.816;44.624;2023-02-22T10:52:01;99691;;;1.2;43.6
49583;BME280;36329;48.816;44.624;2023-02-22T10:55:16;99704;;;0.9;45
49583;BME280;36329;48.816;44.624;2023-02-22T10:58:29;99698;;;1.2;46
49583;BME280;36329;48.816;44.624;2023-02-22T11:01:48;99696;;;1.3;44.8
49583;BME280;36329;48.816;44.624;2023-02-22T11:05:31;99681;;;1.1;44.4
49583;BME280;36329;48.816;44.624;2023-02-22T11:09:09;99682;;;1.8;41.7
49583;BME280;36329;48.816;44.624;2023-02-22T11:12:32;99692;;;1.8;42.9
49583;BME280;36329;48.816;44.624;2023-02-22T11:15:40;99703;;;1.4;43.6
49583;BME280;36329;48.816;44.624;2023-02-22T11:18:49;99716;;;0.9;44.7
49583;BME280;36329;48.816;44.624;2023-02-22T11:22:07;99713;;;0.2;44.7
49583;BME280;36329;48.816;44.624;2023-02-22T11:25:25;99732;;;0.7;45.9
49583;BME280;36329;48.816;44.624;2023-02-22T11:28:34;99731;;;0.4;45
49583;BME280;36329;48.816;44.624;2023-02-22T11:32:18;99736;;;0;46.5
49583;BME280;36329;48.816;44.624;2023-02-22T11:35:34;99747;;;0.1;47
49583;BME280;36329;48.816;44.624;2023-02-22T11:38:53;99729;;;0.2;47
49583;BME280;36329;48.816;44.624;2023-02-22T11:42:23;99759;;;0.5;46.3
49583;BME280;36329;48.816;44.624;2023-02-22T11:45:32;99756;;;0.4;47.1
49583;BME280;36329;48.816;44.624;2023-02-22T11:52:21;99757;;;-0.1;46.9
49583;BME280;36329;48.816;44.624;2023-02-22T11:55:45;99765;;;0.2;46.5
49583;BME280;36329;48.816;44.624;2023-02-22T11:59:03;99764;;;-0.2;46.1
49583;BME280;36329;48.816;44.624;2023-02-22T12:02:34;99761;;;-0.9;47.5
49583;BME280;36329;48.816;44.624;2023-02-22T12:06:19;99770;;;-0.1;45.9
49583;BME280;36329;48.816;44.624;2023-02-22T12:09:56;99771;;;-0.7;45.4
49583;BME280;36329;48.816;44.624;2023-02-22T12:13:28;99783;;;-0.8;46.1
49583;BME280;36329;48.816;44.624;2023-02-22T12:17:01;99792;;;-0.7;47.5
49583;BME280;36329;48.816;44.624;2023-02-22T12:20:16;99803;;;-0.8;47.4
49583;BME280;36329;48.816;44.624;2023-02-22T12:23:24;99809;;;-1.6;49.3
49583;BME280;36329;48.816;44.624;2023-02-22T12:26:38;99817;;;-1.6;50.2
49583;BME280;36329;48.816;44.624;2023-02-22T12:29:53;99821;;;-1.8;50.9
49583;BME280;36329;48.816;44.624;2023-02-22T12:33:14;99821;;;-1.6;52
49583;BME280;36329;48.816;44.624;2023-02-22T12:36:34;99830;;;-2;51.3
49583;BME280;36329;48.816;44.624;2023-02-22T12:39:57;99838;;;-2.3;51.3
49583;BME280;36329;48.816;44.624;2023-02-22T12:43:26;99834;;;-2.7;52.2
49583;BME280;36329;48.816;44.624;2023-02-22T12:46:36;99844;;;-3.1;53.3
49583;BME280;36329;48.816;44.624;2023-02-22T12:49:58;99841;;;-3.1;54
49583;BME280;36329;48.816;44.624;2023-02-22T12:53:12;99847;;;-3.3;54.9
49583;BME280;36329;48.816;44.624;2023-02-22T12:56:42;99857;;;-3.3;55.1
49583;BME280;36329;48.816;44.624;2023-02-22T13:00:10;99861;;;-3;54.8
49583;BME280;36329;48.816;44.624;2023-02-22T13:03:37;99869;;;-3.5;54.8
49583;BME280;36329;48.816;44.624;2023-02-22T13:06:48;99870;;;-3.7;54.9
49583;BME280;36329;48.816;44.624;2023-02-22T13:10:34;99872;;;-3.9;55.8
49583;BME280;36329;48.816;44.624;2023-02-22T13:14:07;99887;;;-3.8;55
49583;BME280;36329;48.816;44.624;2023-02-22T13:17:33;99896;;;-3.8;55.2
49583;BME280;36329;48.816;44.624;2023-02-22T13:21:01;99909;;;-4.2;56.2
49583;BME280;36329;48.816;44.624;2023-02-22T13:24:34;99913;;;-4.3;55.5
49583;BME280;36329;48.816;44.624;2023-02-22T13:27:52;99916;;;-4.2;55.4
49583;BME280;36329;48.816;44.624;2023-02-22T13:31:08;99921;;;-4;55.2
49583;BME280;36329;48.816;44.624;2023-02-22T13:34:40;99926;;;-4.1;54.9
49583;BME280;36329;48.816;44.624;2023-02-22T13:41:57;99945;;;-4.6;55.2
49583;BME280;36329;48.816;44.624;2023-02-22T13:45:47;99963;;;-4.5;54
49583;BME280;36329;48.816;44.624;2023-02-22T13:49:09;99961;;;-4.7;54.8
49583;BME280;36329;48.816;44.624;2023-02-22T13:52:27;99962;;;-4.7;54.9
49583;BME280;36329;48.816;44.624;2023-02-22T13:55:51;99968;;;-5;55.2
49583;BME280;36329;48.816;44.624;2023-02-22T13:59:04;99965;;;-4.8;54.2
49583;BME280;36329;48.816;44.624;2023-02-22T14:02:32;99982;;;-5.1;54.9
49583;BME280;36329;48.816;44.624;2023-02-22T14:06:05;99977;;;-5.4;55
49583;BME280;36329;48.816;44.624;2023-02-22T14:09:42;99980;;;-5.5;56.2
49583;BME280;36329;48.816;44.624;2023-02-22T14:13:12;99995;;;-5.8;55.5
49583;BME280;36329;48.816;44.624;2023-02-22T14:16:27;99999;;;-5.7;55.6
49583;BME280;36329;48.816;44.624;2023-02-22T14:19:42;99999;;;-5.8;56.3
49583;BME280;36329;48.816;44.624;2023-02-22T14:27:00;100012;;;-5.7;56.3
49583;BME280;36329;48.816;44.624;2023-02-22T14:30:22;100028;;;-5.8;56.8
49583;BME280;36329;48.816;44.624;2023-02-22T14:37:13;100035;;;-5.5;57.1
49583;BME280;36329;48.816;44.624;2023-02-22T14:40:24;100042;;;-5.8;55.9
49583;BME280;36329;48.816;44.624;2023-02-22T14:43:35;100050;;;-5.8;55.7
49583;BME280;36329;48.816;44.624;2023-02-22T14:46:40;100063;;;-5.8;55.2
49583;BME280;36329;48.816;44.624;2023-02-22T14:49:45;100064;;;-6.1;55.8
49583;BME280;36329;48.816;44.624;2023-02-22T14:52:59;100064;;;-6.1;56.2
49583;BME280;36329;48.816;44.624;2023-02-22T14:56:06;100071;;;-6.1;55.9
49583;BME280;36329;48.816;44.624;2023-02-22T14:59:16;100083;;;-6.2;55.4
49583;BME280;36329;48.816;44.624;2023-02-22T15:02:19;100089;;;-6.2;55.7
49583;BME280;36329;48.816;44.624;2023-02-22T15:05:21;100105;;;-6.2;55.9
49583;BME280;36329;48.816;44.624;2023-02-22T15:08:23;100111;;;-6.3;56.5
49583;BME280;36329;48.816;44.624;2023-02-22T15:11:27;100118;;;-6.5;56.6
49583;BME280;36329;48.816;44.624;2023-02-22T15:14:31;100111;;;-6.7;57.2
49583;BME280;36329;48.816;44.624;2023-02-22T15:17:33;100130;;;-6.6;57.7
49583;BME280;36329;48.816;44.624;2023-02-22T15:20:36;100134;;;-6.7;57.2
49583;BME280;36329;48.816;44.624;2023-02-22T15:23:40;100138;;;-6.5;56.4
49583;BME280;36329;48.816;44.624;2023-02-22T15:26:43;100142;;;-6.6;57.1
49583;BME280;36329;48.816;44.624;2023-02-22T15:30:05;100151;;;-6.6;56.1
49583;BME280;36329;48.816;44.624;2023-02-22T15:33:14;100159;;;-6.8;57.7
49583;BME280;36329;48.816;44.624;2023-02-22T15:36:44;100168;;;-6.6;58.3
49583;BME280;36329;48.816;44.624;2023-02-22T15:40:20;100177;;;-6.9;57.7
49583;BME280;36329;48.816;44.624;2023-02-22T15:43:24;100171;;;-6.9;56.9
49583;BME280;36329;48.816;44.624;2023-02-22T15:46:33;100187;;;-7.1;57.4
49583;BME280;36329;48.816;44.624;2023-02-22T15:49:43;100197;;;-7.1;57.6
49583;BME280;36329;48.816;44.624;2023-02-22T15:53:22;100203;;;-7;57.7
49583;BME280;36329;48.816;44.624;2023-02-22T15:56:48;100211;;;-6.8;57.8
49583;BME280;36329;48.816;44.624;2023-02-22T16:00:26;100224;;;-7.3;59.3
49583;BME280;36329;48.816;44.624;2023-02-22T16:03:43;100237;;;-7.3;59.7
49583;BME280;36329;48.816;44.624;2023-02-22T16:07:01;100235;;;-6.8;60
49583;BME280;36329;48.816;44.624;2023-02-22T16:10:07;100235;;;-6.8;58.4
49583;BME280;36329;48.816;44.624;2023-02-22T16:13:32;100232;;;-7.1;58.5
49583;BME280;36329;48.816;44.624;2023-02-22T16:20:34;100250;;;-6.7;57.6
49583;BME280;36329;48.816;44.624;2023-02-22T16:24:26;100247;;;-6.7;58.3
49583;BME280;36329;48.816;44.624;2023-02-22T16:27:29;100257;;;-7.1;58.3
49583;BME280;36329;48.816;44.624;2023-02-22T16:30:57;100266;;;-7.6;60.5
49583;BME280;36329;48.816;44.624;2023-02-22T16:34:02;100267;;;-7.4;60.7
49583;BME280;36329;48.816;44.624;2023-02-22T16:37:20;100263;;;-7.2;60.7
49583;BME280;36329;48.816;44.624;2023-02-22T16:40:25;100272;;;-7;60.2
49583;BME280;36329;48.816;44.624;2023-02-22T16:43:35;100266;;;-7;59.1
49583;BME280;36329;48.816;44.624;2023-02-22T16:46:38;100274;;;-7.2;59.2
49583;BME280;36329;48.816;44.624;2023-02-22T16:49:41;100273;;;-6.9;59.7
49583;BME280;36329;48.816;44.624;2023-02-22T16:52:45;100282;;;-7.1;58.8
49583;BME280;36329;48.816;44.624;2023-02-22T16:56:01;100276;;;-7.2;59.4
49583;BME280;36329;48.816;44.624;2023-02-22T16:59:17;100275;;;-7.1;58.8
49583;BME280;36329;48.816;44.624;2023-02-22T17:02:30;100283;;;-7.3;58.7
49583;BME280;36329;48.816;44.624;2023-02-22T17:05:36;100289;;;-7.4;59.6
49583;BME280;36329;48.816;44.624;2023-02-22T17:08:41;100294;;;-7.2;59.7
49583;BME280;36329;48.816;44.624;2023-02-22T17:11:58;100305;;;-7.6;59.5
49583;BME280;36329;48.816;44.624;2023-02-22T17:15:04;100316;;;-7.3;59.6
49583;BME280;36329;48.816;44.624;2023-02-22T17:18:19;100315;;;-7.1;59.5
49583;BME280;36329;48.816;44.624;2023-02-22T17:21:30;100326;;;-7.5;58.6
49583;BME280;36329;48.816;44.624;2023-02-22T17:24:34;100324;;;-7.5;59
49583;BME280;36329;48.816;44.624;2023-02-22T17:27:43;100323;;;-7.3;59.6
49583;BME280;36329;48.816;44.624;2023-02-22T17:31:14;100326;;;-7.7;58.5
49583;BME280;36329;48.816;44.624;2023-02-22T17:34:22;100336;;;-7.7;59.4
49583;BME280;36329;48.816;44.624;2023-02-22T17:37:35;100338;;;-7.5;59.4
49583;BME280;36329;48.816;44.624;2023-02-22T17:40:53;100334;;;-7.7;59.5
49583;BME280;36329;48.816;44.624;2023-02-22T17:44:06;100345;;;-7.7;60.1
49583;BME280;36329;48.816;44.624;2023-02-22T17:47:16;100350;;;-7.6;59.2
49583;BME280;36329;48.816;44.624;2023-02-22T17:50:28;100359;;;-7.8;59.7
49583;BME280;36329;48.816;44.624;2023-02-22T17:53:32;100361;;;-7.9;60.3
49583;BME280;36329;48.816;44.624;2023-02-22T17:56:37;100373;;;-7.9;60.2
49583;BME280;36329;48.816;44.624;2023-02-22T18:00:00;100377;;;-7.9;59.6
49583;BME280;36329;48.816;44.624;2023-02-22T18:03:31;100384;;;-7.8;60.3
49583;BME280;36329;48.816;44.624;2023-02-22T18:06:43;100390;;;-7.5;60.1
49583;BME280;36329;48.816;44.624;2023-02-22T18:09:52;100393;;;-7.3;59.5
49583;BME280;36329;48.816;44.624;2023-02-22T18:13:07;100394;;;-7.5;59.7
49583;BME280;36329;48.816;44.624;2023-02-22T18:16:12;100398;;;-7.7;59.6
49583;BME280;36329;48.816;44.624;2023-02-22T18:19:31;100404;;;-7.6;59.9
49583;BME280;36329;48.816;44.624;2023-02-22T18:23:12;100402;;;-8.1;60.3
49583;BME280;36329;48.816;44.624;2023-02-22T18:26:49;100392;;;-7.9;60.7
49583;BME280;36329;48.816;44.624;2023-02-22T18:29:55;100394;;;-8.1;60.7
49583;BME280;36329;48.816;44.624;2023-02-22T18:33:13;100389;;;-7.9;60.8
49583;BME280;36329;48.816;44.624;2023-02-22T18:36:43;100397;;;-8.2;61.3
49583;BME280;36329;48.816;44.624;2023-02-22T18:40:00;100409;;;-8.1;60.8